Terminal Aerodrome Forecast
Issued by NWS

Home | Current Version | Previous Version | Text Only | Print | Product List | Glossary On
Versions: 1 2 3 4 5 6 7 8 9 10 11 12 13 14 15 16 17 18 19 20 21 22 23 24 25 26 27 28 29 30
000
FTUS43 KDLH 242100 AAA
TAFHYR
TAF AMD
KHYR 242158Z 2422/2518 36005KT P6SM BKN022 OVC030
      TEMPO 2422/2502 SCT022 OVC030
     FM250200 29004KT P6SM VCSH OVC012
     FM250700 06008KT P6SM -SN OVC015
     FM251200 04010KT P6SM OVC030=

USA.gov is the U.S. government's official web portal to all federal, state and local government web resources and services.